Time;durP1;ratioP1;P1;durP2;ratioP2;P2;SDS_P1;SDS_P2;PMS_P1;PMS_P2;Temp;Humidity;BMP_temperature;BMP_pressure;BME280_temperature;BME280_humidity;BME280_pressure;Samples;Min_cycle;Max_cycle;Signal;HPM_P1;HPM_P2
2022/09/19 00:01:24;;;;;;;4.10;1.08;;;;;;;;;;5051734;28;20132;-68
2022/09/19 00:03:58;;;;;;;2.65;1.42;;;;;;;;;;5092502;28;20037;-68
2022/09/19 00:06:26;;;;;;;2.10;1.30;;;;;;;;;;5067951;28;20051;-68
2022/09/19 00:08:53;;;;;;;2.53;1.38;;;;;;;;;;5070229;28;20183;-68
2022/09/19 00:11:19;;;;;;;2.00;1.10;;;;;;;;;;5077276;28;20044;-68
2022/09/19 00:13:47;;;;;;;1.75;1.10;;;;;;;;;;5069588;28;20036;-68
2022/09/19 00:16:16;;;;;;;4.35;1.63;;;;;;;;;;5075079;28;20041;-68
2022/09/19 00:18:42;;;;;;;2.05;1.10;;;;;;;;;;5077023;28;20052;-68
2022/09/19 00:21:09;;;;;;;5.22;1.33;;;;;;;;;;5075034;28;20041;-69
2022/09/19 00:26:20;;;;;;;3.00;1.23;;;;;;;;;;5070931;28;20072;-68
2022/09/19 00:28:47;;;;;;;2.65;1.23;;;;;;;;;;5076926;28;20040;-68
2022/09/19 00:31:16;;;;;;;3.13;1.50;;;;;;;;;;5076094;28;20041;-68
2022/09/19 00:33:44;;;;;;;1.83;1.00;;;;;;;;;;5075885;28;20040;-68
2022/09/19 00:36:11;;;;;;;1.73;1.25;;;;;;;;;;5077586;28;20064;-68
2022/09/19 00:38:37;;;;;;;2.35;1.33;;;;;;;;;;5069374;28;21003;-68
2022/09/19 00:41:03;;;;;;;4.78;1.35;;;;;;;;;;5076999;28;20040;-68
2022/09/19 00:43:48;;;;;;;6.60;2.65;;;;;;;;;;5074775;28;20037;-68
2022/09/19 00:46:14;;;;;;;4.45;1.40;;;;;;;;;;5073691;28;20568;-68
2022/09/19 00:48:41;;;;;;;1.73;1.00;;;;;;;;;;5074269;28;20048;-68
2022/09/19 00:51:10;;;;;;;1.95;1.13;;;;;;;;;;5071124;28;20036;-68
2022/09/19 00:53:36;;;;;;;2.58;1.38;;;;;;;;;;5072945;28;20048;-68
2022/09/19 00:56:04;;;;;;;1.90;1.70;;;;;;;;;;5072553;28;20043;-68
2022/09/19 00:58:30;;;;;;;4.20;1.75;;;;;;;;;;5073185;28;20127;-68
2022/09/19 01:00:57;;;;;;;2.63;1.65;;;;;;;;;;5074944;28;20590;-68
2022/09/19 01:03:25;;;;;;;3.22;1.48;;;;;;;;;;5075071;28;20531;-67
2022/09/19 01:05:59;;;;;;;2.10;1.27;;;;;;;;;;5076830;28;20538;-68
2022/09/19 01:08:33;;;;;;;7.43;2.08;;;;;;;;;;5074117;28;20556;-69
2022/09/19 01:10:59;;;;;;;5.78;1.40;;;;;;;;;;5074666;28;20056;-68
2022/09/19 01:13:38;;;;;;;2.15;1.30;;;;;;;;;;5075932;28;20044;-68
2022/09/19 01:16:04;;;;;;;3.67;1.50;;;;;;;;;;5073724;28;20581;-68
2022/09/19 01:18:33;;;;;;;2.15;1.20;;;;;;;;;;5076998;28;20052;-68
2022/09/19 01:24:00;;;;;;;3.33;1.42;;;;;;;;;;5076229;28;21503;-68
2022/09/19 01:26:31;;;;;;;3.13;1.63;;;;;;;;;;5074134;28;20099;-68
2022/09/19 01:29:06;;;;;;;3.00;1.40;;;;;;;;;;5073861;28;20043;-68
2022/09/19 01:31:35;;;;;;;3.58;1.77;;;;;;;;;;5073229;28;20444;-68
2022/09/19 01:34:02;;;;;;;2.42;1.48;;;;;;;;;;5056866;28;20054;-69
2022/09/19 01:36:31;;;;;;;2.67;2.00;;;;;;;;;;5075811;28;20044;-68
2022/09/19 01:38:57;;;;;;;2.72;1.33;;;;;;;;;;5074874;28;20051;-68
2022/09/19 01:41:23;;;;;;;2.28;1.77;;;;;;;;;;5073673;28;20045;-68
2022/09/19 01:43:50;;;;;;;1.70;1.35;;;;;;;;;;5073315;28;20064;-68
2022/09/19 01:46:30;;;;;;;2.30;1.50;;;;;;;;;;5067562;28;20044;-68
2022/09/19 01:49:11;;;;;;;4.68;2.38;;;;;;;;;;5075118;28;20048;-68
2022/09/19 01:51:48;;;;;;;2.53;1.60;;;;;;;;;;5072961;28;20044;-68
2022/09/19 01:54:27;;;;;;;3.10;1.38;;;;;;;;;;5066791;28;20037;-68
2022/09/19 01:57:08;;;;;;;2.50;1.77;;;;;;;;;;5073555;28;20037;-68
2022/09/19 01:59:50;;;;;;;4.63;2.67;;;;;;;;;;5068238;28;20037;-68
2022/09/19 02:02:34;;;;;;;4.28;1.58;;;;;;;;;;5073827;28;20040;-67
2022/09/19 02:05:03;;;;;;;5.97;1.80;;;;;;;;;;5075243;28;20052;-68
2022/09/19 02:07:48;;;;;;;3.72;1.70;;;;;;;;;;5066679;28;20887;-68
2022/09/19 02:10:26;;;;;;;2.97;1.52;;;;;;;;;;5072680;28;20051;-68
2022/09/19 02:12:54;;;;;;;2.33;1.40;;;;;;;;;;5074338;28;20060;-68
2022/09/19 02:15:25;;;;;;;5.13;1.85;;;;;;;;;;5073698;28;20040;-68
2022/09/19 02:18:04;;;;;;;10.23;2.53;;;;;;;;;;5073972;28;20052;-68
2022/09/19 02:20:32;;;;;;;3.70;1.88;;;;;;;;;;5072171;28;20043;-68
2022/09/19 02:23:02;;;;;;;4.15;1.95;;;;;;;;;;5072976;28;20048;-68
2022/09/19 02:25:33;;;;;;;4.90;2.22;;;;;;;;;;5057014;28;20601;-67
2022/09/19 02:28:05;;;;;;;4.78;2.17;;;;;;;;;;5074184;28;20041;-68
2022/09/19 02:30:33;;;;;;;3.95;1.98;;;;;;;;;;5073659;28;20096;-68
2022/09/19 02:33:00;;;;;;;3.53;1.85;;;;;;;;;;5072580;28;20043;-68
2022/09/19 02:35:36;;;;;;;3.10;1.67;;;;;;;;;;5076875;28;20040;-67
2022/09/19 02:38:10;;;;;;;3.65;1.95;;;;;;;;;;5075659;28;20516;-68
2022/09/19 02:40:40;;;;;;;4.20;2.08;;;;;;;;;;5074185;28;20070;-68
2022/09/19 02:43:06;;;;;;;2.63;1.92;;;;;;;;;;5073634;28;20044;-68
2022/09/19 02:45:37;;;;;;;6.65;2.10;;;;;;;;;;5072917;28;20060;-68
2022/09/19 02:48:08;;;;;;;4.50;2.30;;;;;;;;;;5071582;28;20052;-67
2022/09/19 02:50:41;;;;;;;4.07;2.67;;;;;;;;;;5065640;28;20052;-68
2022/09/19 02:53:11;;;;;;;4.38;2.08;;;;;;;;;;5063743;28;20044;-68
2022/09/19 02:55:44;;;;;;;3.88;2.15;;;;;;;;;;5073479;28;20087;-68
2022/09/19 02:58:11;;;;;;;3.70;1.95;;;;;;;;;;5073574;28;20047;-68
2022/09/19 03:00:38;;;;;;;5.15;2.60;;;;;;;;;;5073247;28;20041;-68
2022/09/19 03:04:11;;;;;;;2.92;2.10;;;;;;;;;;5070656;28;20048;-68
2022/09/19 03:05:52;;;;;;;7.38;2.15;;;;;;;;;;5072877;28;20043;-68
2022/09/19 03:08:19;;;;;;;4.75;2.25;;;;;;;;;;5072881;28;20041;-68
2022/09/19 03:10:48;;;;;;;5.45;1.90;;;;;;;;;;5071773;28;20056;-68
2022/09/19 03:13:14;;;;;;;4.65;2.63;;;;;;;;;;5074927;28;20595;-67
2022/09/19 03:15:43;;;;;;;5.45;2.55;;;;;;;;;;5071360;28;20128;-67
2022/09/19 03:18:13;;;;;;;5.22;2.33;;;;;;;;;;5070884;28;21280;-67
2022/09/19 03:20:39;;;;;;;5.82;2.25;;;;;;;;;;5072548;28;20041;-67
2022/09/19 03:23:07;;;;;;;3.83;2.58;;;;;;;;;;5072745;28;20805;-67
2022/09/19 03:25:34;;;;;;;6.43;3.03;;;;;;;;;;5073942;28;20044;-68
2022/09/19 03:28:00;;;;;;;3.35;2.03;;;;;;;;;;5073726;28;20067;-67
2022/09/19 03:30:26;;;;;;;6.03;2.30;;;;;;;;;;5074480;28;20928;-67
2022/09/19 03:32:53;;;;;;;4.63;2.20;;;;;;;;;;5077131;28;20502;-67
2022/09/19 03:35:22;;;;;;;4.00;2.60;;;;;;;;;;5077904;28;20032;-67
2022/09/19 03:37:50;;;;;;;5.53;2.67;;;;;;;;;;5075816;28;20045;-67
2022/09/19 03:40:16;;;;;;;6.70;2.50;;;;;;;;;;5077869;28;20052;-67
2022/09/19 03:42:44;;;;;;;5.20;2.65;;;;;;;;;;5076855;28;20549;-67
2022/09/19 03:45:10;;;;;;;4.68;2.08;;;;;;;;;;5074593;28;20040;-67
2022/09/19 03:47:37;;;;;;;5.45;2.70;;;;;;;;;;5076999;28;20044;-68
2022/09/19 03:50:03;;;;;;;3.10;2.15;;;;;;;;;;5075201;28;20060;-67
2022/09/19 03:52:29;;;;;;;5.38;2.05;;;;;;;;;;5073115;28;20033;-67
2022/09/19 03:54:57;;;;;;;6.63;2.35;;;;;;;;;;5075437;28;20131;-67
2022/09/19 03:57:24;;;;;;;5.50;2.10;;;;;;;;;;5078706;28;20047;-67
2022/09/19 03:59:50;;;;;;;5.45;2.60;;;;;;;;;;5075868;28;20120;-67
2022/09/19 04:02:16;;;;;;;2.88;1.88;;;;;;;;;;5091954;28;20131;-68
2022/09/19 04:04:42;;;;;;;5.03;2.75;;;;;;;;;;5075206;28;20061;-67
2022/09/19 04:07:08;;;;;;;3.10;2.20;;;;;;;;;;5090672;28;20045;-67
2022/09/19 04:09:34;;;;;;;7.32;2.33;;;;;;;;;;5074366;28;20052;-67
2022/09/19 04:12:02;;;;;;;4.57;2.15;;;;;;;;;;5075225;28;20043;-67
2022/09/19 04:14:29;;;;;;;3.85;2.25;;;;;;;;;;5076974;28;20632;-67
2022/09/19 04:16:55;;;;;;;3.80;2.00;;;;;;;;;;5074914;28;20119;-67
2022/09/19 04:19:25;;;;;;;3.38;2.20;;;;;;;;;;5067163;28;20049;-67
2022/09/19 04:21:52;;;;;;;2.60;2.05;;;;;;;;;;5076249;28;20056;-67
2022/09/19 04:24:20;;;;;;;3.83;2.70;;;;;;;;;;5067461;28;20044;-68
2022/09/19 04:26:47;;;;;;;4.80;2.20;;;;;;;;;;5072505;28;20044;-68
2022/09/19 04:29:13;;;;;;;3.70;2.13;;;;;;;;;;5075058;28;20128;-68
2022/09/19 04:31:39;;;;;;;3.63;2.17;;;;;;;;;;5083643;28;20094;-68
2022/09/19 04:34:06;;;;;;;5.40;2.30;;;;;;;;;;5070478;28;20044;-68
2022/09/19 04:36:33;;;;;;;3.50;2.33;;;;;;;;;;5073320;28;20149;-68
2022/09/19 04:39:03;;;;;;;8.88;2.70;;;;;;;;;;5076630;28;20056;-68
2022/09/19 04:41:33;;;;;;;5.03;2.75;;;;;;;;;;5073415;28;20041;-68
2022/09/19 04:44:00;;;;;;;5.13;2.45;;;;;;;;;;5074440;28;20036;-68
2022/09/19 04:46:26;;;;;;;4.07;2.25;;;;;;;;;;5075048;28;20032;-68
2022/09/19 04:48:54;;;;;;;3.28;2.30;;;;;;;;;;5074159;28;20029;-69
2022/09/19 04:51:20;;;;;;;3.92;2.08;;;;;;;;;;5073663;28;21081;-67
2022/09/19 04:53:46;;;;;;;3.50;2.30;;;;;;;;;;5071920;28;20545;-70
2022/09/19 04:56:12;;;;;;;6.03;2.55;;;;;;;;;;5073603;28;20045;-70
2022/09/19 04:58:40;;;;;;;3.97;2.88;;;;;;;;;;5070497;28;20044;-70
2022/09/19 05:01:07;;;;;;;3.95;2.17;;;;;;;;;;5074887;28;20115;-72
2022/09/19 05:03:35;;;;;;;3.30;2.50;;;;;;;;;;5073240;28;20047;-68
2022/09/19 05:06:02;;;;;;;4.93;2.25;;;;;;;;;;5074997;28;20040;-68
2022/09/19 05:08:30;;;;;;;4.32;1.92;;;;;;;;;;5072461;28;20052;-68
2022/09/19 05:10:57;;;;;;;6.22;2.20;;;;;;;;;;5070199;28;20032;-69
2022/09/19 05:13:30;;;;;;;2.55;2.20;;;;;;;;;;5072043;28;20102;-70
2022/09/19 05:15:57;;;;;;;5.50;2.55;;;;;;;;;;5072764;28;20073;-69
2022/09/19 05:18:24;;;;;;;3.40;2.20;;;;;;;;;;5071193;28;20045;-69
2022/09/19 05:20:52;;;;;;;4.82;2.15;;;;;;;;;;5076550;28;20040;-69
2022/09/19 05:23:18;;;;;;;4.88;2.35;;;;;;;;;;5069610;28;20059;-68
2022/09/19 05:25:44;;;;;;;4.32;2.72;;;;;;;;;;5075336;28;20124;-69
2022/09/19 05:28:11;;;;;;;3.75;2.42;;;;;;;;;;5073385;28;20049;-68
2022/09/19 05:30:38;;;;;;;5.25;2.55;;;;;;;;;;5074887;28;21086;-69
2022/09/19 05:33:06;;;;;;;7.13;2.85;;;;;;;;;;5075521;28;20502;-69
2022/09/19 05:35:32;;;;;;;3.78;2.35;;;;;;;;;;5073993;28;20040;-69
2022/09/19 05:37:58;;;;;;;4.70;3.40;;;;;;;;;;5073950;28;20060;-69
2022/09/19 05:40:27;;;;;;;3.13;2.17;;;;;;;;;;5068795;28;21162;-69
2022/09/19 05:43:00;;;;;;;8.43;2.38;;;;;;;;;;5074968;28;21232;-69
2022/09/19 05:45:27;;;;;;;4.97;3.38;;;;;;;;;;5076402;28;20044;-69
2022/09/19 05:47:59;;;;;;;3.13;2.42;;;;;;;;;;5072792;28;20565;-74
2022/09/19 05:50:29;;;;;;;3.70;2.42;;;;;;;;;;5072937;28;20047;-71
2022/09/19 05:55:40;;;;;;;6.80;2.90;;;;;;;;;;5073679;28;20085;-69
2022/09/19 05:58:08;;;;;;;19.33;3.42;;;;;;;;;;5072834;28;20573;-69
2022/09/19 06:00:35;;;;;;;7.25;3.42;;;;;;;;;;5071755;28;20033;-69
2022/09/19 06:03:02;;;;;;;7.20;2.80;;;;;;;;;;5071777;28;20110;-69
2022/09/19 06:05:32;;;;;;;6.65;2.90;;;;;;;;;;5075833;28;20044;-69
2022/09/19 06:07:58;;;;;;;7.93;2.40;;;;;;;;;;5072370;28;20044;-68
2022/09/19 06:10:25;;;;;;;5.93;2.80;;;;;;;;;;5072397;28;20040;-69
2022/09/19 06:12:51;;;;;;;8.00;2.67;;;;;;;;;;5075364;28;20067;-69
2022/09/19 06:15:17;;;;;;;6.57;2.78;;;;;;;;;;5071748;28;20084;-69
2022/09/19 06:17:45;;;;;;;6.38;2.60;;;;;;;;;;5072708;28;20118;-69
2022/09/19 06:20:14;;;;;;;4.88;2.95;;;;;;;;;;5073102;28;20077;-69
2022/09/19 06:22:40;;;;;;;5.75;3.22;;;;;;;;;;5073395;28;20892;-69
2022/09/19 06:25:07;;;;;;;4.30;2.90;;;;;;;;;;5070891;28;20045;-69
2022/09/19 06:27:33;;;;;;;6.47;2.83;;;;;;;;;;5050272;28;20056;-69
2022/09/19 06:30:01;;;;;;;6.43;2.83;;;;;;;;;;5073704;28;20206;-69
2022/09/19 06:32:27;;;;;;;5.22;2.58;;;;;;;;;;5072632;28;20049;-69
2022/09/19 06:34:53;;;;;;;3.78;2.65;;;;;;;;;;5070552;28;20048;-69
2022/09/19 06:37:20;;;;;;;3.50;2.50;;;;;;;;;;5070820;28;20052;-69
2022/09/19 06:39:46;;;;;;;3.25;2.42;;;;;;;;;;5068931;28;20036;-69
2022/09/19 06:42:13;;;;;;;11.15;3.33;;;;;;;;;;5070069;28;20515;-69
2022/09/19 06:44:39;;;;;;;4.35;2.80;;;;;;;;;;5071622;28;20040;-69
2022/09/19 06:47:06;;;;;;;7.60;2.83;;;;;;;;;;5071150;28;20049;-69
2022/09/19 06:49:32;;;;;;;8.07;3.67;;;;;;;;;;5073842;28;20032;-69
2022/09/19 06:51:58;;;;;;;6.25;3.05;;;;;;;;;;5073714;28;20036;-69
2022/09/19 06:54:25;;;;;;;4.63;3.10;;;;;;;;;;5075468;28;20108;-69
2022/09/19 06:56:52;;;;;;;3.83;2.88;;;;;;;;;;5074368;28;20041;-69
2022/09/19 06:59:18;;;;;;;5.88;2.78;;;;;;;;;;5074886;28;20039;-69
2022/09/19 07:01:47;;;;;;;32.15;5.43;;;;;;;;;;5073576;28;20099;-69
2022/09/19 07:04:13;;;;;;;5.65;2.80;;;;;;;;;;5074560;28;20541;-69
2022/09/19 07:06:39;;;;;;;7.28;3.38;;;;;;;;;;5077677;28;20094;-69
2022/09/19 07:09:07;;;;;;;6.95;3.58;;;;;;;;;;5077317;28;20033;-69
2022/09/19 07:11:35;;;;;;;11.00;3.75;;;;;;;;;;5078136;28;20044;-69
2022/09/19 07:14:02;;;;;;;7.10;2.67;;;;;;;;;;5078941;28;20039;-69
2022/09/19 07:16:28;;;;;;;8.20;3.03;;;;;;;;;;5094016;28;20141;-69
2022/09/19 07:18:54;;;;;;;5.80;2.53;;;;;;;;;;5078636;28;20089;-69
2022/09/19 07:21:20;;;;;;;6.63;3.05;;;;;;;;;;5078664;28;20049;-69
2022/09/19 07:23:47;;;;;;;12.48;3.05;;;;;;;;;;5079602;28;20044;-69
2022/09/19 07:26:14;;;;;;;8.55;3.10;;;;;;;;;;5077394;28;20044;-69
2022/09/19 07:28:40;;;;;;;6.97;2.65;;;;;;;;;;5077345;28;20102;-69
2022/09/19 07:31:07;;;;;;;5.68;2.03;;;;;;;;;;5077694;28;20041;-69
2022/09/19 07:33:33;;;;;;;8.60;2.75;;;;;;;;;;5076363;28;20067;-69
2022/09/19 07:35:59;;;;;;;5.60;2.05;;;;;;;;;;5077511;28;20136;-69
2022/09/19 07:38:28;;;;;;;8.30;2.45;;;;;;;;;;5078582;28;20090;-69
2022/09/19 07:40:54;;;;;;;6.97;2.28;;;;;;;;;;5079155;28;20523;-69
2022/09/19 07:43:21;;;;;;;8.63;2.17;;;;;;;;;;5077120;28;20040;-69
2022/09/19 07:45:50;;;;;;;9.18;2.05;;;;;;;;;;5078341;28;20570;-69
2022/09/19 07:48:16;;;;;;;7.85;2.17;;;;;;;;;;5069392;28;21162;-69
2022/09/19 07:50:43;;;;;;;7.97;3.33;;;;;;;;;;5061462;28;20040;-70
2022/09/19 07:53:13;;;;;;;4.32;1.77;;;;;;;;;;5076605;28;20612;-69
2022/09/19 07:55:41;;;;;;;4.50;1.60;;;;;;;;;;5078349;28;20128;-69
2022/09/19 07:58:07;;;;;;;8.02;2.40;;;;;;;;;;5076675;28;20033;-69
2022/09/19 08:00:37;;;;;;;8.18;3.25;;;;;;;;;;5078141;28;20463;-69
2022/09/19 08:03:09;;;;;;;4.97;1.67;;;;;;;;;;5076828;28;20067;-69
2022/09/19 08:05:35;;;;;;;;;;;;;;;;;;5080437;28;20052;-69
2022/09/19 08:08:01;;;;;;;9.70;1.45;;;;;;;;;;5074619;28;19927;-69
2022/09/19 08:10:27;;;;;;;7.75;1.90;;;;;;;;;;5077587;28;20075;-69
2022/09/19 08:12:53;;;;;;;13.60;2.42;;;;;;;;;;5076384;28;20068;-69
2022/09/19 08:15:20;;;;;;;8.05;1.92;;;;;;;;;;5078038;28;20055;-69
2022/09/19 08:17:59;;;;;;;5.22;2.22;;;;;;;;;;5075664;28;20045;-69
2022/09/19 08:20:26;;;;;;;5.15;1.30;;;;;;;;;;5077307;28;20126;-69
2022/09/19 08:22:56;;;;;;;4.45;3.38;;;;;;;;;;5075746;28;20045;-69
2022/09/19 08:25:23;;;;;;;4.05;1.30;;;;;;;;;;5077746;28;20042;-69
2022/09/19 08:27:51;;;;;;;6.95;1.40;;;;;;;;;;5075916;28;20540;-69
2022/09/19 08:30:18;;;;;;;3.55;1.40;;;;;;;;;;5076251;28;20584;-69
2022/09/19 08:32:49;;;;;;;3.10;1.27;;;;;;;;;;5076671;28;20337;-69
2022/09/19 08:35:16;;;;;;;7.70;1.50;;;;;;;;;;5075781;28;20530;-69
2022/09/19 08:37:42;;;;;;;9.50;1.95;;;;;;;;;;5077573;28;20122;-70
2022/09/19 08:40:15;;;;;;;6.22;1.52;;;;;;;;;;5078469;28;20522;-69
2022/09/19 08:42:51;;;;;;;4.00;1.60;;;;;;;;;;5078709;28;20063;-69
2022/09/19 08:45:33;;;;;;;6.95;2.20;;;;;;;;;;5074237;28;20103;-69
2022/09/19 08:48:01;;;;;;;8.90;3.73;;;;;;;;;;5076442;28;20095;-69
2022/09/19 08:50:30;;;;;;;7.47;1.52;;;;;;;;;;5077107;28;20489;-69
2022/09/19 08:52:58;;;;;;;3.83;1.55;;;;;;;;;;5076968;28;20110;-69
2022/09/19 08:55:26;;;;;;;7.55;1.60;;;;;;;;;;5077569;28;20098;-69
2022/09/19 08:58:14;;;;;;;4.50;1.75;;;;;;;;;;5075940;28;20128;-69
2022/09/19 09:00:42;;;;;;;10.93;1.85;;;;;;;;;;5078450;28;20511;-69
2022/09/19 09:03:13;;;;;;;3.67;0.90;;;;;;;;;;5077414;28;20063;-69
2022/09/19 09:05:45;;;;;;;4.33;2.13;;;;;;;;;;5078194;28;20112;-69
2022/09/19 09:08:30;;;;;;;7.75;2.03;;;;;;;;;;5052034;28;20271;-69
2022/09/19 09:11:14;;;;;;;6.28;1.95;;;;;;;;;;5074725;28;20048;-69
2022/09/19 09:14:04;;;;;;;6.18;1.58;;;;;;;;;;5076575;28;20033;-69
2022/09/19 09:16:45;;;;;;;5.80;1.70;;;;;;;;;;5075807;28;20059;-69
2022/09/19 09:19:23;;;;;;;10.03;2.47;;;;;;;;;;5075259;28;20124;-69
2022/09/19 09:22:08;;;;;;;5.30;1.67;;;;;;;;;;5075550;28;20048;-69
2022/09/19 09:24:40;;;;;;;4.25;1.27;;;;;;;;;;5075976;28;20062;-69
2022/09/19 09:27:11;;;;;;;9.10;1.55;;;;;;;;;;5075663;28;20044;-69
2022/09/19 09:29:39;;;;;;;3.92;1.30;;;;;;;;;;5075374;28;20044;-69
2022/09/19 09:32:20;;;;;;;4.05;1.83;;;;;;;;;;5057588;28;20040;-69
2022/09/19 09:34:48;;;;;;;6.97;1.35;;;;;;;;;;5075772;28;20036;-69
2022/09/19 09:37:14;;;;;;;6.88;1.15;;;;;;;;;;5069178;28;20140;-70
2022/09/19 09:39:59;;;;;;;7.68;1.55;;;;;;;;;;5075306;28;20028;-69
2022/09/19 09:42:28;;;;;;;8.07;1.98;;;;;;;;;;5075592;28;20474;-69
2022/09/19 09:44:55;;;;;;;4.90;0.90;;;;;;;;;;5074186;28;20037;-69
2022/09/19 09:47:24;;;;;;;4.30;1.25;;;;;;;;;;5074663;28;20131;-69
2022/09/19 09:49:52;;;;;;;2.35;1.10;;;;;;;;;;5075117;28;20060;-70
2022/09/19 09:52:27;;;;;;;10.30;2.58;;;;;;;;;;5077860;28;20055;-69
2022/09/19 09:57:38;;;;;;;2.58;1.00;;;;;;;;;;5076814;28;20080;-69
2022/09/19 10:06:04;;;;;;;1.15;0.60;;;;;;;;;;5075448;28;20044;-70
2022/09/19 10:08:30;;;;;;;0.40;0.40;;;;;;;;;;5076476;28;20047;-69
2022/09/19 10:11:04;;;;;;;1.55;0.57;;;;;;;;;;5075665;28;20041;-69
2022/09/19 10:13:33;;;;;;;1.75;0.68;;;;;;;;;;5075872;28;20087;-69
2022/09/19 10:16:03;;;;;;;0.65;0.50;;;;;;;;;;5074803;28;20051;-70
2022/09/19 10:18:37;;;;;;;4.18;0.70;;;;;;;;;;5074759;28;20045;-70
2022/09/19 10:21:04;;;;;;;1.20;0.63;;;;;;;;;;5075203;28;20810;-69
2022/09/19 10:23:32;;;;;;;1.38;0.43;;;;;;;;;;5073530;28;20071;-69
2022/09/19 10:26:00;;;;;;;3.67;0.70;;;;;;;;;;5075194;28;20048;-70
2022/09/19 10:28:37;;;;;;;0.95;0.50;;;;;;;;;;5074069;28;20422;-69
2022/09/19 10:31:04;;;;;;;3.03;0.73;;;;;;;;;;5075725;28;20059;-69
2022/09/19 10:33:31;;;;;;;1.35;0.50;;;;;;;;;;5090320;28;20040;-69
2022/09/19 10:36:03;;;;;;;3.70;1.45;;;;;;;;;;5075551;28;20102;-69
2022/09/19 10:38:30;;;;;;;;;;;;;;;;;;5073378;28;20565;-69
2022/09/19 10:40:58;;;;;;;0.55;0.47;;;;;;;;;;5072843;28;20015;-69
2022/09/19 10:43:31;;;;;;;2.75;1.40;;;;;;;;;;5074039;28;20044;-69
2022/09/19 10:45:58;;;;;;;1.60;0.95;;;;;;;;;;5076106;28;20040;-69
2022/09/19 10:48:31;;;;;;;6.70;0.93;;;;;;;;;;5074581;28;20040;-69
2022/09/19 10:51:02;;;;;;;1.73;0.75;;;;;;;;;;5075003;28;20279;-70
2022/09/19 10:53:30;;;;;;;1.85;1.13;;;;;;;;;;5074044;28;20040;-69
2022/09/19 10:55:58;;;;;;;1.55;0.73;;;;;;;;;;5075744;28;20052;-69
2022/09/19 10:58:29;;;;;;;3.95;1.05;;;;;;;;;;5076697;28;20121;-70
2022/09/19 11:01:01;;;;;;;6.95;1.30;;;;;;;;;;5075450;28;20040;-69
2022/09/19 11:03:31;;;;;;;4.20;1.48;;;;;;;;;;5075178;28;20036;-70
2022/09/19 11:06:10;;;;;;;6.50;1.80;;;;;;;;;;5074688;28;20036;-70
2022/09/19 11:08:45;;;;;;;3.88;1.00;;;;;;;;;;5073592;28;20049;-69
2022/09/19 11:11:38;;;;;;;6.40;1.27;;;;;;;;;;5073370;28;20071;-69
2022/09/19 11:14:04;;;;;;;;;;;;;;;;;;5074236;28;20044;-69
2022/09/19 11:16:37;;;;;;;2.03;1.33;;;;;;;;;;5074535;28;19920;-70
2022/09/19 11:19:26;;;;;;;2.60;0.88;;;;;;;;;;5074496;28;20040;-69
2022/09/19 11:22:08;;;;;;;3.67;1.75;;;;;;;;;;5075592;28;20049;-69
2022/09/19 11:24:53;;;;;;;12.93;2.80;;;;;;;;;;5074350;28;20036;-69
2022/09/19 11:27:25;;;;;;;9.48;1.55;;;;;;;;;;5076074;28;20179;-70
2022/09/19 11:30:02;;;;;;;3.67;1.08;;;;;;;;;;5073577;28;20045;-69
2022/09/19 11:32:44;;;;;;;6.60;0.82;;;;;;;;;;5074276;28;20044;-69
2022/09/19 11:35:27;;;;;;;5.70;0.90;;;;;;;;;;5074529;28;20095;-69
2022/09/19 11:38:02;;;;;;;3.58;0.75;;;;;;;;;;5075014;28;20079;-69
2022/09/19 11:40:36;;;;;;;8.70;0.73;;;;;;;;;;5074412;28;20127;-70
2022/09/19 11:43:08;;;;;;;1.23;0.50;;;;;;;;;;5075837;28;20043;-70
2022/09/19 11:45:55;;;;;;;3.42;0.93;;;;;;;;;;5075286;28;20535;-69
2022/09/19 11:48:44;;;;;;;2.47;1.10;;;;;;;;;;5057198;28;20070;-69
2022/09/19 11:51:13;;;;;;;4.95;0.70;;;;;;;;;;5093514;28;20045;-70
2022/09/19 11:53:40;;;;;;;3.92;1.02;;;;;;;;;;5078189;28;20051;-70
2022/09/19 11:56:25;;;;;;;0.73;0.60;;;;;;;;;;5078498;28;20048;-68
2022/09/19 11:58:54;;;;;;;3.25;0.98;;;;;;;;;;5079053;28;21058;-68
2022/09/19 12:01:20;;;;;;;1.38;1.08;;;;;;;;;;5076726;28;20075;-70
2022/09/19 12:04:09;;;;;;;2.17;1.10;;;;;;;;;;5078206;28;20068;-70
2022/09/19 12:07:03;;;;;;;12.27;2.47;;;;;;;;;;5067786;28;20550;-70
2022/09/19 12:09:34;;;;;;;32.58;4.00;;;;;;;;;;5075281;28;20138;-70
2022/09/19 12:12:12;;;;;;;7.70;1.90;;;;;;;;;;5070250;28;20171;-69
2022/09/19 12:14:41;;;;;;;1.67;0.82;;;;;;;;;;5077606;28;20816;-70
2022/09/19 12:17:26;;;;;;;3.80;1.10;;;;;;;;;;5079654;28;20119;-70
2022/09/19 12:20:01;;;;;;;2.63;0.63;;;;;;;;;;5091710;28;20033;-70
2022/09/19 12:22:30;;;;;;;3.58;0.80;;;;;;;;;;5077909;28;20060;-69
2022/09/19 12:25:01;;;;;;;4.30;1.25;;;;;;;;;;5069087;28;20041;-70
2022/09/19 12:27:33;;;;;;;4.30;0.90;;;;;;;;;;5077634;28;20048;-70
2022/09/19 12:29:59;;;;;;;;;;;;;;;;;;5076585;28;20040;-70
2022/09/19 12:32:32;;;;;;;4.65;0.93;;;;;;;;;;5077054;28;19928;-70
2022/09/19 12:35:31;;;;;;;3.08;0.93;;;;;;;;;;5076173;28;20123;-70
2022/09/19 12:38:03;;;;;;;12.05;2.72;;;;;;;;;;5031630;28;20060;-70
2022/09/19 12:40:39;;;;;;;7.47;1.98;;;;;;;;;;5076571;28;20040;-70
2022/09/19 12:43:09;;;;;;;4.85;1.30;;;;;;;;;;5076176;28;20049;-70
2022/09/19 12:45:37;;;;;;;6.63;1.30;;;;;;;;;;5075961;28;20045;-69
2022/09/19 12:48:19;;;;;;;8.00;0.90;;;;;;;;;;5076530;28;20040;-70
2022/09/19 12:50:48;;;;;;;8.70;2.30;;;;;;;;;;5076545;28;20045;-70
2022/09/19 12:53:35;;;;;;;4.43;1.05;;;;;;;;;;5076477;28;20040;-70
2022/09/19 12:56:16;;;;;;;5.13;0.77;;;;;;;;;;5075488;28;20131;-70
2022/09/19 12:59:00;;;;;;;7.43;1.45;;;;;;;;;;5075167;28;20122;-70
2022/09/19 13:01:32;;;;;;;9.98;1.25;;;;;;;;;;5078490;28;20094;-70
2022/09/19 13:04:25;;;;;;;7.03;1.38;;;;;;;;;;5075203;28;20406;-69
2022/09/19 13:06:53;;;;;;;1.67;0.65;;;;;;;;;;5076940;28;20336;-70
2022/09/19 13:09:32;;;;;;;6.30;1.20;;;;;;;;;;5075335;28;20091;-70
2022/09/19 13:12:04;;;;;;;3.53;0.88;;;;;;;;;;5076438;28;20036;-70
2022/09/19 13:14:43;;;;;;;6.07;1.23;;;;;;;;;;5075542;28;20115;-70
2022/09/19 13:25:35;;;;;;;2.10;0.70;;;;;;;;;;5077078;28;20072;-70
2022/09/19 13:28:20;;;;;;;6.13;1.65;;;;;;;;;;5075352;28;20033;-69
2022/09/19 13:30:50;;;;;;;8.50;1.38;;;;;;;;;;5075560;28;20047;-68
2022/09/19 13:33:25;;;;;;;6.22;0.98;;;;;;;;;;5077167;28;20049;-68
2022/09/19 13:35:53;;;;;;;6.82;1.08;;;;;;;;;;5074314;28;20545;-68
2022/09/19 13:38:25;;;;;;;16.85;2.30;;;;;;;;;;5077045;28;20617;-68
2022/09/19 13:40:57;;;;;;;16.10;1.90;;;;;;;;;;5092592;28;20444;-68
2022/09/19 13:43:23;;;;;;;9.13;2.67;;;;;;;;;;5075797;28;20040;-69
2022/09/19 13:46:02;;;;;;;1.95;0.80;;;;;;;;;;5075641;28;20052;-69
2022/09/19 13:48:49;;;;;;;6.65;0.80;;;;;;;;;;5074110;28;20464;-68
2022/09/19 13:51:31;;;;;;;8.90;1.02;;;;;;;;;;5075497;28;20053;-68
2022/09/19 13:53:59;;;;;;;;;;;;;;;;;;5075721;28;20525;-68
2022/09/19 13:56:28;;;;;;;3.10;1.00;;;;;;;;;;5076782;28;19924;-68
2022/09/19 13:59:24;;;;;;;10.57;0.95;;;;;;;;;;5057704;28;21138;-69
2022/09/19 14:01:56;;;;;;;3.25;1.05;;;;;;;;;;5062106;28;20044;-68
2022/09/19 14:07:08;;;;;;;6.80;1.10;;;;;;;;;;5076966;28;20083;-68
2022/09/19 14:09:44;;;;;;;2.08;1.00;;;;;;;;;;5073944;28;20045;-69
2022/09/19 14:12:28;;;;;;;8.20;0.85;;;;;;;;;;5091787;28;20040;-69
2022/09/19 14:14:55;;;;;;;1.45;0.75;;;;;;;;;;5074294;28;20044;-69
2022/09/19 14:17:21;;;;;;;9.27;1.40;;;;;;;;;;5074419;28;20094;-69
2022/09/19 14:19:48;;;;;;;4.85;0.77;;;;;;;;;;5074433;28;21004;-69
2022/09/19 14:22:34;;;;;;;6.13;1.50;;;;;;;;;;5071821;28;20052;-69
2022/09/19 14:25:18;;;;;;;3.08;0.90;;;;;;;;;;5069975;28;20587;-69
2022/09/19 14:28:03;;;;;;;5.72;1.23;;;;;;;;;;5072125;28;20106;-69
2022/09/19 14:30:32;;;;;;;6.22;1.08;;;;;;;;;;5066775;28;20558;-73
2022/09/19 14:33:34;;;;;;;2.38;0.82;;;;;;;;;;5065491;28;20040;-69
2022/09/19 14:36:19;;;;;;;1.33;1.00;;;;;;;;;;5073690;28;20088;-69
2022/09/19 14:38:58;;;;;;;4.82;1.08;;;;;;;;;;5073400;28;20083;-69
2022/09/19 14:41:30;;;;;;;4.70;1.13;;;;;;;;;;5073369;28;20036;-69
2022/09/19 14:44:02;;;;;;;1.55;0.47;;;;;;;;;;5075094;28;20137;-68
2022/09/19 14:46:33;;;;;;;1.80;0.98;;;;;;;;;;5073211;28;21064;-69
2022/09/19 14:49:02;;;;;;;0.73;0.50;;;;;;;;;;5075452;28;20045;-68
2022/09/19 14:51:30;;;;;;;7.20;1.23;;;;;;;;;;5073591;28;20073;-68
2022/09/19 14:54:16;;;;;;;1.67;0.95;;;;;;;;;;5091619;28;20041;-69
2022/09/19 14:56:53;;;;;;;4.00;0.57;;;;;;;;;;5056757;28;20040;-68
2022/09/19 14:59:22;;;;;;;7.95;1.60;;;;;;;;;;5074201;28;20056;-69
2022/09/19 15:01:53;;;;;;;2.13;0.85;;;;;;;;;;5073175;28;20038;-69
2022/09/19 15:04:22;;;;;;;1.65;0.60;;;;;;;;;;5074563;28;20519;-69
2022/09/19 15:06:51;;;;;;;5.13;1.02;;;;;;;;;;5074521;28;20047;-69
2022/09/19 15:09:22;;;;;;;2.17;0.82;;;;;;;;;;5074151;28;20106;-68
2022/09/19 15:11:50;;;;;;;1.33;0.70;;;;;;;;;;5072892;28;20310;-69
2022/09/19 15:14:17;;;;;;;1.45;0.90;;;;;;;;;;5073773;28;20091;-69
2022/09/19 15:16:44;;;;;;;6.15;1.13;;;;;;;;;;5072065;28;20052;-68
2022/09/19 15:19:11;;;;;;;1.05;0.70;;;;;;;;;;5072592;28;20187;-69
2022/09/19 15:21:38;;;;;;;3.25;2.05;;;;;;;;;;5073100;28;20540;-68
2022/09/19 15:24:08;;;;;;;2.67;1.00;;;;;;;;;;5071005;28;20041;-69
2022/09/19 15:26:41;;;;;;;2.00;0.57;;;;;;;;;;5073324;28;20045;-69
2022/09/19 15:29:36;;;;;;;3.67;0.80;;;;;;;;;;5070246;28;20055;-69
2022/09/19 15:32:28;;;;;;;0.28;0.28;;;;;;;;;;5075873;28;20056;-69
2022/09/19 15:34:55;;;;;;;3.75;1.13;;;;;;;;;;5092577;28;20040;-69